Time;durP1;ratioP1;P1;durP2;ratioP2;P2;SDS_P1;SDS_P2;PMS_P1;PMS_P2;Temp;Humidity;BMP_temperature;BMP_pressure;BME280_temperature;BME280_humidity;BME280_pressure;Samples;Min_cycle;Max_cycle;Signal;HPM_P1;HPM_P2
2021/12/23 00:00:48;;;;;;;;;;;6.20;99.90;;;;;;5094808;28;19979;-75
2021/12/23 00:03:14;;;;;;;;;;;6.20;99.90;;;;;;5075006;28;20000;-75
2021/12/23 00:05:40;;;;;;;;;;;6.30;99.90;;;;;;5084264;28;19908;-75
2021/12/23 00:08:05;;;;;;;;;;;6.30;99.90;;;;;;5091133;28;19916;-75
2021/12/23 00:10:31;;;;;;;;;;;6.30;99.90;;;;;;5092305;28;19991;-76
2021/12/23 00:12:57;;;;;;;;;;;6.40;99.90;;;;;;5097156;28;20339;-75
2021/12/23 00:18:04;;;;;;;;;;;6.40;99.90;;;;;;5082158;28;19911;-75
2021/12/23 00:25:43;;;;;;;;;;;6.40;99.90;;;;;;5096889;28;19918;-74
2021/12/23 00:28:09;;;;;;;;;;;6.50;99.90;;;;;;5095371;28;19916;-75
2021/12/23 00:30:35;;;;;;;;;;;6.40;99.90;;;;;;5096551;28;20016;-74
2021/12/23 00:33:00;;;;;;;;;;;6.40;99.90;;;;;;5087583;28;20461;-73
2021/12/23 00:35:26;;;;;;;;;;;6.40;99.90;;;;;;5099194;28;19908;-75
2021/12/23 00:37:58;;;;;;;;;;;6.40;99.90;;;;;;5099625;28;20006;-75
2021/12/23 00:40:24;;;;;;;;;;;6.40;99.90;;;;;;5095325;28;20303;-75
2021/12/23 00:42:52;;;;;;;;;;;6.40;99.90;;;;;;5098543;28;20491;-75
2021/12/23 00:45:18;;;;;;;;;;;6.40;99.90;;;;;;5092774;28;19908;-75
2021/12/23 00:47:44;;;;;;;;;;;6.40;99.90;;;;;;5097226;28;20261;-75
2021/12/23 00:50:09;;;;;;;;;;;6.40;99.90;;;;;;5094714;28;19912;-74
2021/12/23 00:52:37;;;;;;;;;;;6.40;99.90;;;;;;5104247;28;19990;-74
2021/12/23 00:55:04;;;;;;;;;;;6.40;99.90;;;;;;5099412;28;20289;-75
2021/12/23 00:57:30;;;;;;;;;;;6.30;99.90;;;;;;5095532;28;19919;-74
2021/12/23 00:59:57;;;;;;;;;;;6.30;99.90;;;;;;5096047;28;19920;-74
2021/12/23 01:02:26;;;;;;;;;;;6.40;99.90;;;;;;5096156;28;19908;-74
2021/12/23 01:04:52;;;;;;;;;;;6.30;99.90;;;;;;5098016;28;19933;-74
2021/12/23 01:07:17;;;;;;;;;;;6.30;99.90;;;;;;5095289;28;19916;-74
2021/12/23 01:09:43;;;;;;;;;;;6.20;99.90;;;;;;5102357;28;19907;-74
2021/12/23 01:12:11;;;;;;;;;;;6.20;99.90;;;;;;5093890;28;19923;-74
2021/12/23 01:14:55;;;;;;;;;;;6.10;99.90;;;;;;5090078;28;19908;-74
2021/12/23 01:19:52;;;;;;;;;;;6.10;99.90;;;;;;5096589;28;20350;-74
2021/12/23 01:22:19;;;;;;;;;;;6.20;99.90;;;;;;5081454;28;19908;-74
2021/12/23 01:24:45;;;;;;;;;;;6.10;99.90;;;;;;5089168;28;19908;-74
2021/12/23 01:27:10;;;;;;;;;;;6.10;99.90;;;;;;5102136;28;19978;-74
2021/12/23 01:29:36;;;;;;;;;;;6.10;99.90;;;;;;5094510;28;19908;-74
2021/12/23 01:32:04;;;;;;;;;;;6.00;99.90;;;;;;5104907;28;19908;-74
2021/12/23 01:34:30;;;;;;;;;;;6.00;99.90;;;;;;5101557;28;19907;-75
2021/12/23 01:36:56;;;;;;;;;;;6.00;99.90;;;;;;5089821;28;20252;-75
2021/12/23 01:39:21;;;;;;;;;;;6.00;99.90;;;;;;5095113;28;19914;-75
2021/12/23 01:41:47;;;;;;;;;;;6.00;99.90;;;;;;5098016;28;19908;-75
2021/12/23 01:44:13;;;;;;;;;;;6.10;99.90;;;;;;5100339;28;19960;-75
2021/12/23 01:46:38;;;;;;;;;;;6.10;99.90;;;;;;5103801;28;19933;-75
2021/12/23 01:49:04;;;;;;;;;;;6.10;99.90;;;;;;5090429;28;19971;-75
2021/12/23 01:51:30;;;;;;;;;;;6.10;99.90;;;;;;5095904;28;19912;-74
2021/12/23 01:53:55;;;;;;;;;;;6.10;99.90;;;;;;5101702;28;19908;-75
2021/12/23 01:56:23;;;;;;;;;;;6.00;99.90;;;;;;5096469;28;20037;-75
2021/12/23 01:58:49;;;;;;;;;;;6.10;99.90;;;;;;5098098;28;19915;-75
2021/12/23 02:01:14;;;;;;;;;;;6.10;99.90;;;;;;5097200;28;20345;-75
2021/12/23 02:03:40;;;;;;;;;;;6.10;99.90;;;;;;5098126;28;19944;-76
2021/12/23 02:06:06;;;;;;;;;;;6.10;99.90;;;;;;5099121;28;19995;-76
2021/12/23 02:08:32;;;;;;;;;;;6.10;99.90;;;;;;5090355;28;20443;-74
2021/12/23 02:10:58;;;;;;;;;;;6.00;99.90;;;;;;5099902;28;19907;-75
2021/12/23 02:13:24;;;;;;;;;;;6.00;99.90;;;;;;5111034;27;19945;-75
2021/12/23 02:15:50;;;;;;;;;;;6.10;99.90;;;;;;5096620;28;19919;-74
2021/12/23 02:18:16;;;;;;;;;;;6.20;99.90;;;;;;5098983;28;19957;-74
2021/12/23 02:20:41;;;;;;;;;;;6.30;99.90;;;;;;5102201;28;19907;-76
2021/12/23 02:23:08;;;;;;;;;;;6.30;99.90;;;;;;5102416;28;19908;-76
2021/12/23 02:25:34;;;;;;;;;;;6.20;99.90;;;;;;5105474;28;20337;-76
2021/12/23 02:28:04;;;;;;;;;;;6.30;99.90;;;;;;5092537;28;19951;-75
2021/12/23 02:30:30;;;;;;;;;;;6.20;99.90;;;;;;5083404;28;19922;-75
2021/12/23 02:32:56;;;;;;;;;;;6.20;99.90;;;;;;5093981;28;20288;-75
2021/12/23 02:35:22;;;;;;;;;;;6.30;99.90;;;;;;5093627;28;19903;-75
2021/12/23 02:37:48;;;;;;;;;;;6.30;99.90;;;;;;5094977;28;19908;-75
2021/12/23 02:40:25;;;;;;;;;;;6.30;99.90;;;;;;5093574;28;20289;-74
2021/12/23 02:42:50;;;;;;;;;;;6.20;99.90;;;;;;5102520;28;20004;-75
2021/12/23 02:45:16;;;;;;;;;;;6.20;99.90;;;;;;5094711;28;19904;-75
2021/12/23 02:47:42;;;;;;;;;;;6.20;99.90;;;;;;5097402;28;19958;-75
2021/12/23 02:50:08;;;;;;;;;;;6.20;99.90;;;;;;5098340;28;19908;-75
2021/12/23 02:52:34;;;;;;;;;;;6.20;99.90;;;;;;5090954;28;20280;-75
2021/12/23 02:55:00;;;;;;;;;;;6.20;99.90;;;;;;5104792;28;19904;-75
2021/12/23 02:57:25;;;;;;;;;;;6.20;99.90;;;;;;5107548;28;19973;-76
2021/12/23 02:59:51;;;;;;;;;;;6.20;99.90;;;;;;5110052;28;20044;-77
2021/12/23 03:02:17;;;;;;;;;;;6.20;99.90;;;;;;5106449;28;19908;-76
2021/12/23 03:04:43;;;;;;;;;;;6.40;99.90;;;;;;5109629;28;19907;-76
2021/12/23 03:07:08;;;;;;;;;;;6.40;99.90;;;;;;5110876;28;20334;-76
2021/12/23 03:09:34;;;;;;;;;;;6.60;99.90;;;;;;5110809;28;19915;-76
2021/12/23 03:11:59;;;;;;;;;;;6.60;99.90;;;;;;5102152;28;20455;-75
2021/12/23 03:14:25;;;;;;;;;;;6.60;99.90;;;;;;5103753;28;19916;-75
2021/12/23 03:16:50;;;;;;;;;;;6.60;99.90;;;;;;5102335;28;19948;-75
2021/12/23 03:19:16;;;;;;;;;;;6.70;99.90;;;;;;5104109;28;19971;-74
2021/12/23 03:21:44;;;;;;;;;;;6.70;99.90;;;;;;5109938;28;19979;-75
2021/12/23 03:24:15;;;;;;;;;;;6.60;99.90;;;;;;5098493;28;19923;-74
2021/12/23 03:26:40;;;;;;;;;;;6.40;99.90;;;;;;5109311;28;19914;-76
2021/12/23 03:29:08;;;;;;;;;;;6.40;99.90;;;;;;5103415;28;19912;-75
2021/12/23 03:31:34;;;;;;;;;;;6.20;99.90;;;;;;5103574;28;20026;-75
2021/12/23 03:34:00;;;;;;;;;;;6.20;99.90;;;;;;5115238;28;19907;-76
2021/12/23 03:36:26;;;;;;;;;;;6.20;99.90;;;;;;5107991;28;19907;-76
2021/12/23 03:38:51;;;;;;;;;;;6.20;99.90;;;;;;5099410;28;20425;-75
2021/12/23 03:41:17;;;;;;;;;;;6.30;99.90;;;;;;5109598;28;19923;-75
2021/12/23 03:43:42;;;;;;;;;;;6.30;99.90;;;;;;5108791;28;19911;-74
2021/12/23 03:46:08;;;;;;;;;;;6.40;99.90;;;;;;5108489;28;19939;-76
2021/12/23 03:48:34;;;;;;;;;;;6.50;99.90;;;;;;5111146;28;19908;-76
2021/12/23 03:50:59;;;;;;;;;;;6.40;99.90;;;;;;5096620;28;19912;-76
2021/12/23 03:53:25;;;;;;;;;;;6.40;99.90;;;;;;5113294;28;19907;-75
2021/12/23 03:55:50;;;;;;;;;;;6.30;99.90;;;;;;5110800;28;19908;-74
2021/12/23 03:58:16;;;;;;;;;;;6.30;99.90;;;;;;5106237;28;19928;-75
2021/12/23 04:00:43;;;;;;;;;;;6.20;99.90;;;;;;5111837;28;19957;-76
2021/12/23 04:03:09;;;;;;;;;;;6.20;99.90;;;;;;5113389;28;19908;-77
2021/12/23 04:05:34;;;;;;;;;;;6.10;99.90;;;;;;5112947;28;19911;-75
2021/12/23 04:08:00;;;;;;;;;;;6.10;99.90;;;;;;5087089;28;19916;-76
2021/12/23 04:10:26;;;;;;;;;;;6.00;99.90;;;;;;5097752;28;19912;-77
2021/12/23 04:12:52;;;;;;;;;;;6.10;99.90;;;;;;5099515;28;19904;-77
2021/12/23 04:15:18;;;;;;;;;;;6.10;99.90;;;;;;5102137;28;19912;-77
2021/12/23 04:17:44;;;;;;;;;;;6.20;99.90;;;;;;5099244;28;19904;-75
2021/12/23 04:20:20;;;;;;;;;;;6.10;99.90;;;;;;5094094;28;19912;-76
2021/12/23 04:22:48;;;;;;;;;;;6.30;99.90;;;;;;5094263;28;19912;-75
2021/12/23 04:25:14;;;;;;;;;;;6.30;99.90;;;;;;5100654;28;19912;-75
2021/12/23 04:27:40;;;;;;;;;;;6.30;99.90;;;;;;5107722;28;19912;-76
2021/12/23 04:30:07;;;;;;;;;;;6.20;99.90;;;;;;5100637;28;19915;-76
2021/12/23 04:32:33;;;;;;;;;;;6.30;99.90;;;;;;5099536;28;19955;-76
2021/12/23 04:34:59;;;;;;;;;;;6.30;99.90;;;;;;5097496;28;19916;-75
2021/12/23 04:37:24;;;;;;;;;;;6.30;99.90;;;;;;5098039;28;19927;-74
2021/12/23 04:39:50;;;;;;;;;;;6.20;99.90;;;;;;5100722;28;19915;-75
2021/12/23 04:42:15;;;;;;;;;;;6.10;99.90;;;;;;5099894;28;20364;-75
2021/12/23 04:44:41;;;;;;;;;;;6.10;99.90;;;;;;5094117;28;19984;-76
2021/12/23 04:47:07;;;;;;;;;;;6.10;99.90;;;;;;5102804;28;20285;-75
2021/12/23 04:49:32;;;;;;;;;;;6.00;99.90;;;;;;5107366;28;19912;-76
2021/12/23 04:51:58;;;;;;;;;;;6.00;99.90;;;;;;5114527;28;19907;-75
2021/12/23 04:54:23;;;;;;;;;;;6.00;99.90;;;;;;5095153;28;19911;-76
2021/12/23 04:56:49;;;;;;;;;;;6.00;99.90;;;;;;5096808;28;19912;-77
2021/12/23 04:59:15;;;;;;;;;;;6.00;99.90;;;;;;5098769;28;19915;-75
2021/12/23 05:01:40;;;;;;;;;;;5.90;99.90;;;;;;5102639;28;19911;-75
2021/12/23 05:04:06;;;;;;;;;;;5.90;99.90;;;;;;5090963;28;19908;-76
2021/12/23 05:06:32;;;;;;;;;;;5.90;99.90;;;;;;5105037;28;19908;-76
2021/12/23 05:08:57;;;;;;;;;;;5.90;99.90;;;;;;5097805;28;19912;-76
2021/12/23 05:11:23;;;;;;;;;;;6.00;99.90;;;;;;5093819;28;19907;-76
2021/12/23 05:13:48;;;;;;;;;;;5.90;99.90;;;;;;5106186;28;19908;-76
2021/12/23 05:16:17;;;;;;;;;;;6.00;99.90;;;;;;5108338;28;19908;-76
2021/12/23 05:18:43;;;;;;;;;;;6.00;99.90;;;;;;5106364;28;19908;-76
2021/12/23 05:21:09;;;;;;;;;;;6.00;99.90;;;;;;5108574;28;20372;-76
2021/12/23 05:23:35;;;;;;;;;;;6.00;99.90;;;;;;5096081;28;19999;-76
2021/12/23 05:26:01;;;;;;;;;;;6.00;99.90;;;;;;5091310;28;19904;-77
2021/12/23 05:28:26;;;;;;;;;;;6.00;99.90;;;;;;5097825;28;19912;-77
2021/12/23 05:30:52;;;;;;;;;;;6.00;99.90;;;;;;5104651;28;19903;-76
2021/12/23 05:33:18;;;;;;;;;;;6.00;99.90;;;;;;5089008;28;19908;-75
2021/12/23 05:35:43;;;;;;;;;;;6.00;99.90;;;;;;5129298;27;20433;-77
2021/12/23 05:38:09;;;;;;;;;;;6.00;99.90;;;;;;5090718;28;20018;-77
2021/12/23 05:40:35;;;;;;;;;;;6.10;99.90;;;;;;5089108;28;20325;-75
2021/12/23 05:43:02;;;;;;;;;;;6.00;99.90;;;;;;5093338;28;20158;-77
2021/12/23 05:45:28;;;;;;;;;;;6.10;99.90;;;;;;5104332;28;20013;-75
2021/12/23 05:47:54;;;;;;;;;;;6.10;99.90;;;;;;5096680;28;19987;-76
2021/12/23 05:50:20;;;;;;;;;;;6.10;99.90;;;;;;5100256;28;19919;-76
2021/12/23 05:52:46;;;;;;;;;;;6.10;99.90;;;;;;5102068;28;19931;-75
2021/12/23 05:55:13;;;;;;;;;;;6.10;99.90;;;;;;5098310;28;20357;-76
2021/12/23 05:57:39;;;;;;;;;;;6.10;99.90;;;;;;5129102;27;19922;-74
2021/12/23 06:00:06;;;;;;;;;;;6.10;99.90;;;;;;5095554;28;19923;-76
2021/12/23 06:02:32;;;;;;;;;;;6.20;99.90;;;;;;5098234;28;20390;-74
2021/12/23 06:04:57;;;;;;;;;;;6.20;99.90;;;;;;5092290;28;19990;-75
2021/12/23 06:07:23;;;;;;;;;;;6.30;99.90;;;;;;5081381;28;19915;-74
2021/12/23 06:09:49;;;;;;;;;;;6.30;99.90;;;;;;5098196;28;20016;-73
2021/12/23 06:12:15;;;;;;;;;;;6.30;99.90;;;;;;5090861;28;19995;-75
2021/12/23 06:14:40;;;;;;;;;;;6.30;99.90;;;;;;5082067;28;19920;-75
2021/12/23 06:17:06;;;;;;;;;;;6.20;99.90;;;;;;5099116;28;19908;-74
2021/12/23 06:19:31;;;;;;;;;;;6.30;99.90;;;;;;5080647;28;19908;-74
2021/12/23 06:21:57;;;;;;;;;;;6.20;99.90;;;;;;5082874;28;20301;-74
2021/12/23 06:24:22;;;;;;;;;;;6.20;99.90;;;;;;5094186;27;19908;-73
2021/12/23 06:26:48;;;;;;;;;;;6.20;99.90;;;;;;5080048;28;19915;-74
2021/12/23 06:29:14;;;;;;;;;;;6.20;99.90;;;;;;5077883;28;20292;-75
2021/12/23 06:31:39;;;;;;;;;;;6.30;99.90;;;;;;5080412;28;19912;-73
2021/12/23 06:34:05;;;;;;;;;;;6.30;99.90;;;;;;5082240;28;19908;-74
2021/12/23 06:36:30;;;;;;;;;;;6.30;99.90;;;;;;5103641;28;19973;-74
2021/12/23 06:38:56;;;;;;;;;;;6.20;99.90;;;;;;5091561;28;20061;-74
2021/12/23 06:41:22;;;;;;;;;;;6.30;99.90;;;;;;5080289;28;19934;-73
2021/12/23 06:43:47;;;;;;;;;;;6.30;99.90;;;;;;5080784;28;19907;-74
2021/12/23 06:46:13;;;;;;;;;;;6.30;99.90;;;;;;5081295;28;20409;-75
2021/12/23 06:48:38;;;;;;;;;;;6.30;99.90;;;;;;5085297;28;20265;-74
2021/12/23 06:51:04;;;;;;;;;;;6.30;99.90;;;;;;5080118;28;20266;-74
2021/12/23 06:53:30;;;;;;;;;;;6.30;99.90;;;;;;5081439;28;20250;-73
2021/12/23 06:55:56;;;;;;;;;;;6.30;99.90;;;;;;5080691;28;19914;-73
2021/12/23 06:58:25;;;;;;;;;;;6.40;99.90;;;;;;5078190;28;19907;-74
2021/12/23 07:00:51;;;;;;;;;;;6.40;99.90;;;;;;5078944;28;19912;-73
2021/12/23 07:03:17;;;;;;;;;;;6.30;99.90;;;;;;5081130;28;20403;-73
2021/12/23 07:05:43;;;;;;;;;;;6.40;99.90;;;;;;5081403;28;19912;-74
2021/12/23 07:08:14;;;;;;;;;;;6.40;99.90;;;;;;5081498;28;19960;-73
2021/12/23 07:10:40;;;;;;;;;;;6.50;99.90;;;;;;5080178;28;20002;-73
2021/12/23 07:13:05;;;;;;;;;;;6.50;99.90;;;;;;5080624;28;20014;-73
2021/12/23 07:15:32;;;;;;;;;;;6.60;99.90;;;;;;5080735;28;19978;-73
2021/12/23 07:17:59;;;;;;;;;;;6.70;99.90;;;;;;5080399;28;20536;-73
2021/12/23 07:20:25;;;;;;;;;;;6.70;99.90;;;;;;5097798;28;19908;-73
2021/12/23 07:22:51;;;;;;;;;;;6.70;99.90;;;;;;5100851;28;20008;-72
2021/12/23 07:25:17;;;;;;;;;;;6.70;99.90;;;;;;5095167;28;19969;-73
2021/12/23 07:27:43;;;;;;;;;;;6.60;99.90;;;;;;5094823;28;20014;-73
2021/12/23 07:30:09;;;;;;;;;;;6.50;99.90;;;;;;5099761;28;19965;-74
2021/12/23 07:32:35;;;;;;;;;;;6.50;99.90;;;;;;5095401;28;19912;-74
2021/12/23 07:35:01;;;;;;;;;;;6.60;99.90;;;;;;5094839;28;19915;-73
2021/12/23 07:37:26;;;;;;;;;;;6.70;99.90;;;;;;5104068;28;19907;-74
2021/12/23 07:39:54;;;;;;;;;;;7.00;99.90;;;;;;5092699;28;19953;-73
2021/12/23 07:42:20;;;;;;;;;;;7.20;99.90;;;;;;5099627;28;19912;-74
2021/12/23 07:44:46;;;;;;;;;;;7.40;99.90;;;;;;5099296;28;19998;-74
2021/12/23 07:47:13;;;;;;;;;;;7.40;99.90;;;;;;5098804;28;20014;-74
2021/12/23 07:49:39;;;;;;;;;;;7.20;99.90;;;;;;5097674;28;19957;-65
2021/12/23 07:52:06;;;;;;;;;;;7.10;99.90;;;;;;5087186;28;19908;-64
2021/12/23 07:54:33;;;;;;;;;;;7.00;99.90;;;;;;5095759;28;20392;-66
2021/12/23 07:56:59;;;;;;;;;;;6.80;99.90;;;;;;5095105;28;19903;-71
2021/12/23 07:59:24;;;;;;;;;;;6.90;99.90;;;;;;5100333;28;19919;-72
2021/12/23 08:01:50;;;;;;;;;;;7.20;99.90;;;;;;5101943;28;20345;-71
2021/12/23 08:04:16;;;;;;;;;;;7.30;99.90;;;;;;5102324;28;19908;-70
2021/12/23 08:06:42;;;;;;;;;;;7.50;99.90;;;;;;5096315;28;19916;-70
2021/12/23 08:09:08;;;;;;;;;;;7.50;99.90;;;;;;5101647;28;19953;-71
2021/12/23 08:11:33;;;;;;;;;;;7.50;99.90;;;;;;5108931;28;19912;-72
2021/12/23 08:13:59;;;;;;;;;;;7.50;99.90;;;;;;5094295;28;20334;-71
2021/12/23 08:16:25;;;;;;;;;;;7.60;99.90;;;;;;5079349;28;19964;-71
2021/12/23 08:18:50;;;;;;;;;;;7.60;99.90;;;;;;5083102;28;20373;-71
2021/12/23 08:21:16;;;;;;;;;;;7.60;99.90;;;;;;5093728;28;19913;-72
2021/12/23 08:23:41;;;;;;;;;;;7.50;99.90;;;;;;5102119;28;19915;-72
2021/12/23 08:26:14;;;;;;;;;;;7.60;99.90;;;;;;5100191;28;20334;-72
2021/12/23 08:28:40;;;;;;;;;;;7.60;99.90;;;;;;5097434;28;20321;-72
2021/12/23 08:31:05;;;;;;;;;;;7.60;99.90;;;;;;5099567;28;19914;-72
2021/12/23 08:33:31;;;;;;;;;;;7.60;99.90;;;;;;5102421;28;19919;-72
2021/12/23 08:35:56;;;;;;;;;;;7.60;99.90;;;;;;5094964;28;19907;-72
2021/12/23 08:38:22;;;;;;;;;;;7.70;99.90;;;;;;5102137;28;20293;-71
2021/12/23 08:40:47;;;;;;;;;;;7.70;99.90;;;;;;5097141;28;19915;-72
2021/12/23 08:43:13;;;;;;;;;;;7.70;99.90;;;;;;5101475;28;19952;-72
2021/12/23 08:45:39;;;;;;;;;;;7.70;99.90;;;;;;5098902;28;19976;-69
2021/12/23 08:48:05;;;;;;;;;;;7.80;99.90;;;;;;5100932;28;19918;-70
2021/12/23 08:50:31;;;;;;;;;;;7.70;99.90;;;;;;5101470;28;20026;-70
2021/12/23 08:52:57;;;;;;;;;;;7.70;99.90;;;;;;5100690;28;19926;-70
2021/12/23 08:55:25;;;;;;;;;;;7.70;99.90;;;;;;5100347;28;19915;-70
2021/12/23 08:57:50;;;;;;;;;;;7.70;99.90;;;;;;5106091;28;20286;-69
2021/12/23 09:00:17;;;;;;;;;;;7.70;99.90;;;;;;5102068;28;20011;-70
2021/12/23 09:02:43;;;;;;;;;;;7.80;99.90;;;;;;5103383;28;19999;-69
2021/12/23 09:05:09;;;;;;;;;;;7.80;99.90;;;;;;5099335;28;20247;-69
2021/12/23 09:07:35;;;;;;;;;;;7.90;99.90;;;;;;5105715;28;19907;-70
2021/12/23 09:10:00;;;;;;;;;;;8.00;99.90;;;;;;5104247;28;19907;-70
2021/12/23 09:12:26;;;;;;;;;;;8.10;99.90;;;;;;5113375;28;20284;-71
2021/12/23 09:14:52;;;;;;;;;;;8.20;99.90;;;;;;5093369;28;19972;-71
2021/12/23 09:17:18;;;;;;;;;;;8.30;99.90;;;;;;5094235;28;20394;-69
2021/12/23 09:19:44;;;;;;;;;;;8.30;99.90;;;;;;5104976;28;19999;-71
2021/12/23 09:22:10;;;;;;;;;;;8.40;99.90;;;;;;5102445;28;19916;-72
2021/12/23 09:24:38;;;;;;;;;;;8.40;99.90;;;;;;5099103;28;19915;-72
2021/12/23 09:27:33;;;;;;;;;;;8.60;99.90;;;;;;5103540;28;20350;-72
2021/12/23 09:35:16;;;;;;;;;;;8.80;99.90;;;;;;5060112;28;19916;-71
2021/12/23 09:37:42;;;;;;;;;;;8.90;99.90;;;;;;5090166;28;19933;-72
2021/12/23 09:40:08;;;;;;;;;;;8.90;99.90;;;;;;5092940;28;20314;-71
2021/12/23 09:42:34;;;;;;;;;;;8.90;99.90;;;;;;5099125;28;19904;-71
2021/12/23 09:45:03;;;;;;;;;;;9.00;99.90;;;;;;5102238;28;19912;-72
2021/12/23 09:47:31;;;;;;;;;;;8.90;99.90;;;;;;5100237;28;19912;-71
2021/12/23 09:49:58;;;;;;;;;;;8.90;99.90;;;;;;5095221;28;19908;-71
2021/12/23 09:52:25;;;;;;;;;;;9.00;99.90;;;;;;5099930;28;19908;-71
2021/12/23 09:54:52;;;;;;;;;;;9.10;99.90;;;;;;5094081;28;19954;-71
2021/12/23 09:57:18;;;;;;;;;;;9.40;99.90;;;;;;5099559;28;20319;-71
2021/12/23 09:59:44;;;;;;;;;;;9.30;99.90;;;;;;5096205;28;19916;-72
2021/12/23 10:02:09;;;;;;;;;;;9.30;99.90;;;;;;5093864;28;20375;-71
2021/12/23 10:04:35;;;;;;;;;;;9.30;99.90;;;;;;5092681;28;19904;-71
2021/12/23 10:07:01;;;;;;;;;;;9.30;99.90;;;;;;5097859;28;19978;-72
2021/12/23 10:13:07;;;;;;;;;;;9.20;99.90;;;;;;5093826;28;19907;-71
2021/12/23 10:31:30;;;;;;;;;;;8.60;99.90;;;;;;5102549;28;19915;-72
2021/12/23 10:37:19;;;;;;;;;;;8.70;99.90;;;;;;5109353;28;19942;-73
2021/12/23 10:39:50;;;;;;;;;;;8.60;99.90;;;;;;5099680;28;19957;-72
2021/12/23 10:42:19;;;;;;;;;;;8.70;99.90;;;;;;5096682;28;19908;-73
2021/12/23 10:44:52;;;;;;;;;;;8.70;99.90;;;;;;5096790;28;19983;-71
2021/12/23 10:47:36;;;;;;;;;;;8.90;99.90;;;;;;5099757;28;19908;-69
2021/12/23 10:50:16;;;;;;;;;;;9.00;99.90;;;;;;5096699;28;20353;-70
2021/12/23 10:52:53;;;;;;;;;;;9.10;99.90;;;;;;5102034;28;19914;-71
2021/12/23 10:58:03;;;;;;;;;;;9.20;99.90;;;;;;5098692;28;19908;-71
2021/12/23 11:00:41;;;;;;;;;;;9.20;99.90;;;;;;5100823;28;19911;-70
2021/12/23 11:03:14;;;;;;;;;;;9.20;99.90;;;;;;5097209;28;19908;-71
2021/12/23 11:05:54;;;;;;;;;;;9.30;99.90;;;;;;5088682;28;19908;-71
2021/12/23 11:38:10;;;;;;;;;;;9.20;99.90;;;;;;5097348;28;19919;-71
2021/12/23 11:45:49;;;;;;;;;;;9.20;99.90;;;;;;5090660;28;20125;-71
2021/12/23 11:48:16;;;;;;;;;;;9.20;99.90;;;;;;5088710;28;20034;-71
2021/12/23 11:50:54;;;;;;;;;;;9.30;99.90;;;;;;5080713;28;20344;-72
2021/12/23 11:53:21;;;;;;;;;;;9.40;99.90;;;;;;5089539;28;19919;-72
2021/12/23 11:55:47;;;;;;;;;;;9.40;99.90;;;;;;5099358;28;20373;-72
2021/12/23 11:58:14;;;;;;;;;;;9.40;99.90;;;;;;5072168;28;20010;-73
2021/12/23 12:00:43;;;;;;;;;;;9.40;99.90;;;;;;5070792;28;19965;-72
2021/12/23 12:03:09;;;;;;;;;;;9.40;99.90;;;;;;5086690;28;20226;-72
2021/12/23 12:05:36;;;;;;;;;;;9.30;99.90;;;;;;5079991;28;20289;-71
2021/12/23 12:08:15;;;;;;;;;;;9.30;99.90;;;;;;5103336;28;20365;-72
2021/12/23 12:10:42;;;;;;;;;;;9.20;99.90;;;;;;5087315;28;19912;-72
2021/12/23 12:13:08;;;;;;;;;;;9.10;99.90;;;;;;5086468;28;19915;-72
2021/12/23 12:15:35;;;;;;;;;;;9.00;99.90;;;;;;5090212;28;19915;-72
2021/12/23 12:18:02;;;;;;;;;;;9.00;99.90;;;;;;5090152;28;19904;-72
2021/12/23 12:20:53;;;;;;;;;;;8.90;99.90;;;;;;5088412;28;19975;-72
2021/12/23 12:23:41;;;;;;;;;;;8.90;99.90;;;;;;5088664;28;19904;-72
2021/12/23 12:26:12;;;;;;;;;;;9.00;99.90;;;;;;5067207;28;19953;-72
2021/12/23 12:28:39;;;;;;;;;;;9.20;99.90;;;;;;5070106;28;20375;-71
2021/12/23 12:31:06;;;;;;;;;;;9.20;99.90;;;;;;5072982;28;19916;-72
2021/12/23 12:33:33;;;;;;;;;;;9.20;99.90;;;;;;5082864;28;20331;-72
2021/12/23 12:36:01;;;;;;;;;;;9.10;99.90;;;;;;5090262;28;20408;-72
2021/12/23 12:38:29;;;;;;;;;;;9.00;99.90;;;;;;5079511;28;19908;-73
2021/12/23 12:40:56;;;;;;;;;;;9.00;99.90;;;;;;5075783;28;19939;-72
2021/12/23 12:43:33;;;;;;;;;;;8.90;99.90;;;;;;5081638;28;19999;-73
2021/12/23 12:45:58;;;;;;;;;;;8.80;99.90;;;;;;5081466;28;19936;-72
2021/12/23 12:48:45;;;;;;;;;;;8.90;99.90;;;;;;5074701;28;20013;-71
2021/12/23 12:51:20;;;;;;;;;;;9.00;99.90;;;;;;5079659;28;19916;-72
2021/12/23 12:54:02;;;;;;;;;;;9.00;99.90;;;;;;5093538;28;19908;-72
2021/12/23 12:56:28;;;;;;;;;;;9.00;99.90;;;;;;5093487;28;19904;-73
2021/12/23 12:58:54;;;;;;;;;;;9.10;99.90;;;;;;5092273;28;19919;-73
2021/12/23 13:01:52;;;;;;;;;;;9.00;99.90;;;;;;5092071;28;19916;-73
2021/12/23 13:04:19;;;;;;;;;;;9.10;99.90;;;;;;5072655;28;19967;-72
2021/12/23 13:06:45;;;;;;;;;;;9.10;99.90;;;;;;5085667;28;19954;-72
2021/12/23 13:09:11;;;;;;;;;;;9.10;99.90;;;;;;5093452;28;19950;-72
2021/12/23 13:11:41;;;;;;;;;;;9.00;99.90;;;;;;5093754;28;19911;-73
2021/12/23 13:14:13;;;;;;;;;;;9.10;99.90;;;;;;5093724;28;20375;-73
2021/12/23 13:16:58;;;;;;;;;;;9.00;99.90;;;;;;5093563;28;20076;-73
2021/12/23 13:19:27;;;;;;;;;;;9.00;99.90;;;;;;5072793;28;19904;-73
2021/12/23 13:21:55;;;;;;;;;;;8.90;99.90;;;;;;5084600;28;20017;-72
2021/12/23 13:24:22;;;;;;;;;;;8.90;99.90;;;;;;5073051;28;19904;-73
2021/12/23 13:26:48;;;;;;;;;;;9.00;99.90;;;;;;5073575;28;20275;-72
2021/12/23 13:29:14;;;;;;;;;;;9.00;99.90;;;;;;5073042;28;19908;-72
2021/12/23 13:31:41;;;;;;;;;;;9.00;99.90;;;;;;5072829;28;19914;-72
2021/12/23 13:34:09;;;;;;;;;;;8.80;99.90;;;;;;5076786;28;19958;-72
2021/12/23 13:36:38;;;;;;;;;;;8.80;99.90;;;;;;5080065;28;19935;-72
2021/12/23 13:39:05;;;;;;;;;;;8.60;99.90;;;;;;5092886;28;20350;-72
2021/12/23 13:41:32;;;;;;;;;;;8.50;99.90;;;;;;5093241;28;19912;-72
2021/12/23 13:44:17;;;;;;;;;;;8.50;99.90;;;;;;5092837;28;19986;-72
2021/12/23 13:46:44;;;;;;;;;;;8.60;99.90;;;;;;5087089;28;20035;-73
2021/12/23 13:49:10;;;;;;;;;;;8.50;99.90;;;;;;5099232;28;19998;-73
2021/12/23 13:51:37;;;;;;;;;;;8.60;99.90;;;;;;5093259;28;20373;-73
2021/12/23 13:54:13;;;;;;;;;;;8.50;99.90;;;;;;5083285;28;19908;-73
2021/12/23 13:56:44;;;;;;;;;;;8.40;99.90;;;;;;5076798;28;19956;-75
2021/12/23 13:59:12;;;;;;;;;;;8.40;99.90;;;;;;5088374;28;20102;-70
2021/12/23 14:01:50;;;;;;;;;;;8.40;99.90;;;;;;5092546;28;20018;-75
2021/12/23 14:04:31;;;;;;;;;;;8.50;99.90;;;;;;5076967;28;19987;-75
2021/12/23 14:06:57;;;;;;;;;;;8.50;99.90;;;;;;5082621;28;19916;-75
2021/12/23 14:09:30;;;;;;;;;;;8.40;99.90;;;;;;5088160;28;20006;-75
2021/12/23 14:11:55;;;;;;;;;;;8.30;99.90;;;;;;5091639;28;19908;-73
2021/12/23 14:14:22;;;;;;;;;;;8.30;99.90;;;;;;5091823;28;19920;-72
2021/12/23 14:16:48;;;;;;;;;;;8.40;99.90;;;;;;5088518;28;19931;-72
2021/12/23 14:23:11;;;;;;;;;;;8.40;99.90;;;;;;5071800;28;19904;-73
2021/12/23 14:24:54;;;;;;;;;;;8.40;99.90;;;;;;5090666;28;19923;-73
2021/12/23 14:27:20;;;;;;;;;;;8.40;99.90;;;;;;5092805;28;19907;-73
2021/12/23 14:29:48;;;;;;;;;;;8.60;99.90;;;;;;5091247;28;19912;-71
2021/12/23 14:32:14;;;;;;;;;;;8.60;99.90;;;;;;5092322;28;19911;-73
2021/12/23 14:34:40;;;;;;;;;;;8.50;99.90;;;;;;5091702;28;19912;-73
2021/12/23 14:37:08;;;;;;;;;;;8.50;99.90;;;;;;5091871;28;19904;-73
2021/12/23 14:39:36;;;;;;;;;;;8.50;99.90;;;;;;5091760;28;19994;-72
2021/12/23 14:42:12;;;;;;;;;;;8.50;99.90;;;;;;5091863;28;19911;-73
2021/12/23 14:44:39;;;;;;;;;;;8.50;99.90;;;;;;5092191;28;20161;-72
2021/12/23 14:47:15;;;;;;;;;;;8.40;99.90;;;;;;5091979;28;19905;-73
2021/12/23 14:52:16;;;;;;;;;;;8.40;99.90;;;;;;5092067;28;19904;-72
2021/12/23 14:54:48;;;;;;;;;;;8.40;99.90;;;;;;5091811;28;19904;-72
2021/12/23 14:57:15;;;;;;;;;;;8.40;99.90;;;;;;5091805;28;19904;-72
2021/12/23 14:59:48;;;;;;;;;;;8.30;99.90;;;;;;5091638;28;19908;-72
2021/12/23 15:02:15;;;;;;;;;;;8.30;99.90;;;;;;5092374;28;19904;-72
2021/12/23 15:04:58;;;;;;;;;;;8.20;99.90;;;;;;5091739;28;19915;-72
2021/12/23 15:07:24;;;;;;;;;;;8.20;99.90;;;;;;5089748;28;19968;-73
2021/12/23 15:09:56;;;;;;;;;;;8.20;99.90;;;;;;5090973;28;20365;-74
2021/12/23 15:12:23;;;;;;;;;;;8.20;99.90;;;;;;5092647;28;20073;-72
2021/12/23 15:14:51;;;;;;;;;;;8.20;99.90;;;;;;5091880;28;19930;-73
2021/12/23 15:17:23;;;;;;;;;;;8.20;99.90;;;;;;5092167;28;19912;-73
2021/12/23 15:19:51;;;;;;;;;;;8.20;99.90;;;;;;5091827;28;19904;-72
2021/12/23 15:22:18;;;;;;;;;;;8.20;99.90;;;;;;5092414;28;20308;-72
2021/12/23 15:24:45;;;;;;;;;;;8.20;99.90;;;;;;5091430;28;19949;-73
2021/12/23 15:27:20;;;;;;;;;;;8.10;99.90;;;;;;5092234;28;19904;-72
2021/12/23 15:29:47;;;;;;;;;;;8.20;99.90;;;;;;5092202;28;19908;-73
2021/12/23 15:32:28;;;;;;;;;;;8.30;99.90;;;;;;5092214;28;19991;-74
2021/12/23 15:35:02;;;;;;;;;;;8.30;99.90;;;;;;5091136;28;19904;-73
2021/12/23 15:37:31;;;;;;;;;;;8.30;99.90;;;;;;5082621;28;19908;-73
2021/12/23 15:39:57;;;;;;;;;;;8.20;99.90;;;;;;5071679;28;19904;-73
2021/12/23 15:42:24;;;;;;;;;;;8.20;99.90;;;;;;5088868;28;19967;-72
2021/12/23 15:44:51;;;;;;;;;;;8.20;99.90;;;;;;5091220;28;19904;-73
2021/12/23 15:47:18;;;;;;;;;;;8.10;99.90;;;;;;5091015;28;19927;-73
2021/12/23 15:49:44;;;;;;;;;;;8.00;99.90;;;;;;5090846;28;19990;-72
2021/12/23 15:52:11;;;;;;;;;;;8.00;99.90;;;;;;5091988;28;19907;-73
2021/12/23 15:54:38;;;;;;;;;;;8.00;99.90;;;;;;5086281;28;19916;-73